createdAt,value
2023-01-11T00:09:16.386Z,3.17
2023-01-11T00:19:18.029Z,3.05
2023-01-11T00:29:21.792Z,3.03
2023-01-11T00:39:23.420Z,3.02
2023-01-11T00:49:32.320Z,2.96
2023-01-11T00:59:35.235Z,2.96
2023-01-11T01:09:37.812Z,2.99
2023-01-11T01:19:39.589Z,2.93
2023-01-11T01:29:44.763Z,2.84
2023-01-11T01:39:48.438Z,2.84
2023-01-11T01:49:51.334Z,2.70
2023-01-11T01:59:57.023Z,2.61
2023-01-11T02:10:19.682Z,2.54
2023-01-11T02:20:43.277Z,2.61
2023-01-11T02:31:04.731Z,2.64
2023-01-11T02:41:57.191Z,2.57
2023-01-11T02:52:12.988Z,2.50
2023-01-11T03:02:17.027Z,2.35
2023-01-11T03:12:47.648Z,2.27
2023-01-11T03:23:01.493Z,2.14
2023-01-11T03:33:22.968Z,2.00
2023-01-11T03:43:26.754Z,1.96
2023-01-11T03:53:32.889Z,2.03
2023-01-11T04:03:34.563Z,1.99
2023-01-11T04:13:36.436Z,1.95
2023-01-11T04:23:38.567Z,2.35
2023-01-11T04:33:40.115Z,2.16
2023-01-11T04:43:41.674Z,1.93
2023-01-11T04:53:43.527Z,1.82
2023-01-11T05:03:53.152Z,1.68
2023-01-11T05:13:54.853Z,1.60
2023-01-11T05:23:57.014Z,1.56
2023-01-11T05:33:59.450Z,1.59
2023-01-11T05:44:19.828Z,1.65
2023-01-11T05:54:21.881Z,1.53
2023-01-11T06:04:24.249Z,1.47
2023-01-11T06:14:29.519Z,1.50
2023-01-11T06:24:33.256Z,1.50
2023-01-11T06:34:41.685Z,1.48
2023-01-11T06:44:44.467Z,1.50
2023-01-11T06:54:47.232Z,1.70
2023-01-11T07:04:51.203Z,1.64
2023-01-11T07:14:53.892Z,1.61
2023-01-11T07:24:55.655Z,1.61
2023-01-11T07:34:59.584Z,1.93
2023-01-11T07:45:03.483Z,2.19
2023-01-11T07:55:05.838Z,2.33
2023-01-11T08:05:09.398Z,2.35
2023-01-11T08:15:14.384Z,2.38
2023-01-11T08:25:25.358Z,3.29
2023-01-11T08:35:29.739Z,4.15
2023-01-11T08:45:36.739Z,5.95
2023-01-11T08:55:43.921Z,7.25
2023-01-11T09:05:51.730Z,7.30
2023-01-11T09:15:59.712Z,8.62
2023-01-11T09:26:01.444Z,10.08
2023-01-11T09:36:07.972Z,10.95
2023-01-11T09:57:02.948Z,13.95
2023-01-11T10:07:16.865Z,13.88
2023-01-11T10:28:29.474Z,16.76
2023-01-11T10:38:59.932Z,17.44
2023-01-11T10:49:29.071Z,18.66
2023-01-11T11:00:00.607Z,16.60
2023-01-11T11:10:22.560Z,15.57
2023-01-11T11:20:32.225Z,15.02
2023-01-11T11:30:43.277Z,19.11
2023-01-11T11:40:56.027Z,20.37
2023-01-11T11:51:00.911Z,21.38
2023-01-11T12:01:07.041Z,22.27
2023-01-11T12:11:20.631Z,23.31
2023-01-11T12:21:50.725Z,23.61
2023-01-11T12:32:06.000Z,23.18
2023-01-11T12:42:26.972Z,17.08
2023-01-11T12:52:46.134Z,14.88
2023-01-11T13:02:57.993Z,15.15
2023-01-11T13:13:17.956Z,16.78
2023-01-11T13:23:21.689Z,18.85
2023-01-11T13:33:28.092Z,19.91
2023-01-11T13:43:55.640Z,16.68
2023-01-11T13:54:37.895Z,12.70
2023-01-11T14:05:02.009Z,12.11
2023-01-11T14:15:26.566Z,11.46
2023-01-11T14:25:46.541Z,11.18
2023-01-11T14:36:23.708Z,10.46
2023-01-11T14:46:44.987Z,9.38
2023-01-11T14:56:48.304Z,8.59
2023-01-11T15:17:18.730Z,6.93
2023-01-11T15:27:27.661Z,6.55
2023-01-11T15:38:00.576Z,6.36
2023-01-11T15:48:32.947Z,5.95
2023-01-11T15:59:08.027Z,5.59
2023-01-11T16:09:12.670Z,5.42
2023-01-11T16:19:20.055Z,5.02
2023-01-11T16:29:27.013Z,4.78
2023-01-11T16:39:30.943Z,4.62
2023-01-11T16:49:35.475Z,4.57
2023-01-11T16:59:42.538Z,4.29
2023-01-11T17:09:45.021Z,4.07
2023-01-11T17:19:52.617Z,3.80
2023-01-11T17:29:58.392Z,3.77
2023-01-11T17:40:04.395Z,3.48
2023-01-11T17:50:08.146Z,3.40
2023-01-11T18:00:26.514Z,3.32
2023-01-11T18:10:33.926Z,3.37
2023-01-11T18:20:41.326Z,3.03
2023-01-11T18:30:54.989Z,2.80
2023-01-11T18:40:59.720Z,2.66
2023-01-11T18:51:02.175Z,2.56
2023-01-11T19:01:08.832Z,2.39
2023-01-11T19:11:20.591Z,2.31
2023-01-11T19:21:26.012Z,2.24
2023-01-11T19:31:28.569Z,2.29
2023-01-11T19:41:50.886Z,2.15
2023-01-11T19:51:59.667Z,1.84
2023-01-11T20:02:03.743Z,1.72
2023-01-11T20:12:17.996Z,1.63
2023-01-11T20:22:23.515Z,1.42
2023-01-11T20:32:40.925Z,1.42
2023-01-11T20:42:45.863Z,1.53
2023-01-11T20:52:52.235Z,1.21
2023-01-11T21:03:03.174Z,1.04
2023-01-11T21:23:28.612Z,1.05
2023-01-11T21:33:39.222Z,0.66
2023-01-11T21:43:45.705Z,0.74
2023-01-11T21:53:56.605Z,0.68
2023-01-11T22:03:59.802Z,0.55
2023-01-11T22:14:12.829Z,0.46
2023-01-11T22:24:15.742Z,0.55
2023-01-11T22:34:18.376Z,0.51
2023-01-11T22:44:24.875Z,0.35
2023-01-11T22:54:26.799Z,0.29
2023-01-11T23:04:29.205Z,0.40
2023-01-11T23:14:33.689Z,0.49
2023-01-11T23:24:37.658Z,0.36
2023-01-11T23:34:39.523Z,0.02
2023-01-11T23:44:41.518Z,0.13
2023-01-11T23:54:45.721Z,0.22
